Redtown, Texas
Current Conditions -  °F | °C
As of 4:35 AM on Thursday 27 Nov 2014 (Local Time) from KOCH Reporting Station
Clear Clear  
Wind Chill: 39°   Ceiling: Unl
Heat Index: 43°   Visibility: 10mi
Dew Point: 30°   Wind: 6mph
Humidity: 61%   Direction: 10°N
Pressure: 30.44"   Gusts: NA
Location:  31.426°N, 94.8655°W
Report Text: KOCH 271035Z AUTO 01005KT 10SM CLR 06/M01 A3044 RMK AO1
Loading
Personal Weather Stations






























Interactive Weather Map New forecast layout! Learn more

10-Day Weather Forecast

Advertisements
Track Severe Weather on mobile